Absarokee, Montana
Current Conditions -  °F | °C
As of 3:53 PM on Wednesday 22 Oct 2014 (Local Time) from KBIL Reporting Station
Clear Clear  
Wind Chill: 64°   Ceiling: Unl
Heat Index: 64°   Visibility: 10mi
Dew Point: 20°   Wind: 12mph
Humidity: 18%   Direction: 260°W
Pressure: 29.94"   Gusts: NA
Location:  45.53°N, 109.43°W
Report Text: KBIL 222153Z 26010KT 10SM CLR 18/M07 A2994 RMK AO2 SLP125 T01781067
Loading
Personal Weather Stations






























Interactive Weather Map New forecast layout! Learn more

10-Day Weather Forecast

Advertisements
Track Severe Weather on mobile